sensor_id;sensor_type;location;lat;lon;timestamp;P1;durP1;ratioP1;P2;durP2;ratioP2
2019;SDS011;1014;51.960;8.542;2022-11-30T00:01:40;42.97;;;38.38;;
2019;SDS011;1014;51.960;8.542;2022-11-30T00:04:07;47.13;;;37.37;;
2019;SDS011;1014;51.960;8.542;2022-11-30T00:06:34;48.25;;;38.22;;
2019;SDS011;1014;51.960;8.542;2022-11-30T00:09:01;40.53;;;36.13;;
2019;SDS011;1014;51.960;8.542;2022-11-30T00:11:28;46.13;;;38.03;;
2019;SDS011;1014;51.960;8.542;2022-11-30T00:13:56;43.65;;;38.30;;
2019;SDS011;1014;51.960;8.542;2022-11-30T00:16:23;39.55;;;35.30;;
2019;SDS011;1014;51.960;8.542;2022-11-30T00:18:52;42.97;;;38.47;;
2019;SDS011;1014;51.960;8.542;2022-11-30T00:21:19;41.17;;;36.47;;
2019;SDS011;1014;51.960;8.542;2022-11-30T00:23:47;42.77;;;37.47;;
2019;SDS011;1014;51.960;8.542;2022-11-30T00:26:16;45.77;;;40.87;;
2019;SDS011;1014;51.960;8.542;2022-11-30T00:28:46;40.67;;;36.58;;
2019;SDS011;1014;51.960;8.542;2022-11-30T00:31:14;41.78;;;35.60;;
2019;SDS011;1014;51.960;8.542;2022-11-30T00:33:42;39.70;;;35.50;;
2019;SDS011;1014;51.960;8.542;2022-11-30T00:36:11;40.10;;;36.07;;
2019;SDS011;1014;51.960;8.542;2022-11-30T00:38:38;39.50;;;35.30;;
2019;SDS011;1014;51.960;8.542;2022-11-30T00:41:06;40.43;;;35.33;;
2019;SDS011;1014;51.960;8.542;2022-11-30T00:43:33;40.03;;;35.92;;
2019;SDS011;1014;51.960;8.542;2022-11-30T00:46:00;38.22;;;34.35;;
2019;SDS011;1014;51.960;8.542;2022-11-30T00:48:27;36.88;;;32.97;;
2019;SDS011;1014;51.960;8.542;2022-11-30T00:50:54;38.20;;;34.40;;
2019;SDS011;1014;51.960;8.542;2022-11-30T00:53:23;37.07;;;33.37;;
2019;SDS011;1014;51.960;8.542;2022-11-30T00:55:50;37.33;;;33.80;;
2019;SDS011;1014;51.960;8.542;2022-11-30T00:58:17;37.27;;;33.70;;
2019;SDS011;1014;51.960;8.542;2022-11-30T01:00:44;38.08;;;34.28;;
2019;SDS011;1014;51.960;8.542;2022-11-30T01:03:11;40.05;;;35.17;;
2019;SDS011;1014;51.960;8.542;2022-11-30T01:05:39;37.00;;;33.07;;
2019;SDS011;1014;51.960;8.542;2022-11-30T01:08:08;39.07;;;34.93;;
2019;SDS011;1014;51.960;8.542;2022-11-30T01:10:37;37.10;;;33.20;;
2019;SDS011;1014;51.960;8.542;2022-11-30T01:13:05;36.63;;;32.80;;
2019;SDS011;1014;51.960;8.542;2022-11-30T01:15:34;38.40;;;34.42;;
2019;SDS011;1014;51.960;8.542;2022-11-30T01:18:02;38.47;;;34.33;;
2019;SDS011;1014;51.960;8.542;2022-11-30T01:20:29;38.30;;;34.40;;
2019;SDS011;1014;51.960;8.542;2022-11-30T01:22:56;38.93;;;35.00;;
2019;SDS011;1014;51.960;8.542;2022-11-30T01:25:23;39.63;;;35.20;;
2019;SDS011;1014;51.960;8.542;2022-11-30T01:27:51;40.57;;;36.07;;
2019;SDS011;1014;51.960;8.542;2022-11-30T01:30:18;36.80;;;32.90;;
2019;SDS011;1014;51.960;8.542;2022-11-30T01:32:45;38.20;;;34.20;;
2019;SDS011;1014;51.960;8.542;2022-11-30T01:35:13;41.03;;;36.03;;
2019;SDS011;1014;51.960;8.542;2022-11-30T01:37:40;37.50;;;33.63;;
2019;SDS011;1014;51.960;8.542;2022-11-30T01:40:07;38.60;;;34.37;;
2019;SDS011;1014;51.960;8.542;2022-11-30T01:42:34;37.33;;;33.63;;
2019;SDS011;1014;51.960;8.542;2022-11-30T01:45:03;37.77;;;34.03;;
2019;SDS011;1014;51.960;8.542;2022-11-30T01:47:31;35.10;;;31.40;;
2019;SDS011;1014;51.960;8.542;2022-11-30T01:50:02;36.97;;;33.50;;
2019;SDS011;1014;51.960;8.542;2022-11-30T01:52:31;34.30;;;31.00;;
2019;SDS011;1014;51.960;8.542;2022-11-30T01:55:02;35.43;;;31.90;;
2019;SDS011;1014;51.960;8.542;2022-11-30T01:57:33;36.57;;;32.93;;
2019;SDS011;1014;51.960;8.542;2022-11-30T02:00:00;35.03;;;31.53;;
2019;SDS011;1014;51.960;8.542;2022-11-30T02:02:31;35.33;;;31.83;;
2019;SDS011;1014;51.960;8.542;2022-11-30T02:05:00;36.23;;;32.63;;
2019;SDS011;1014;51.960;8.542;2022-11-30T02:07:27;36.13;;;32.53;;
2019;SDS011;1014;51.960;8.542;2022-11-30T02:09:54;34.33;;;30.93;;
2019;SDS011;1014;51.960;8.542;2022-11-30T02:12:22;37.13;;;32.97;;
2019;SDS011;1014;51.960;8.542;2022-11-30T02:14:52;38.87;;;33.97;;
2019;SDS011;1014;51.960;8.542;2022-11-30T02:17:23;40.63;;;34.80;;
2019;SDS011;1014;51.960;8.542;2022-11-30T02:20:02;36.57;;;32.70;;
2019;SDS011;1014;51.960;8.542;2022-11-30T02:22:40;37.07;;;33.03;;
2019;SDS011;1014;51.960;8.542;2022-11-30T02:25:09;37.27;;;33.27;;
2019;SDS011;1014;51.960;8.542;2022-11-30T02:27:44;33.93;;;30.50;;
2019;SDS011;1014;51.960;8.542;2022-11-30T02:30:17;34.17;;;30.57;;
2019;SDS011;1014;51.960;8.542;2022-11-30T02:32:45;34.00;;;30.60;;
2019;SDS011;1014;51.960;8.542;2022-11-30T02:35:14;33.70;;;30.07;;
2019;SDS011;1014;51.960;8.542;2022-11-30T02:37:43;40.07;;;32.80;;
2019;SDS011;1014;51.960;8.542;2022-11-30T02:40:12;33.83;;;30.53;;
2019;SDS011;1014;51.960;8.542;2022-11-30T02:42:41;30.87;;;28.03;;
2019;SDS011;1014;51.960;8.542;2022-11-30T02:45:09;33.90;;;30.50;;
2019;SDS011;1014;51.960;8.542;2022-11-30T02:47:39;32.87;;;29.57;;
2019;SDS011;1014;51.960;8.542;2022-11-30T02:50:07;34.10;;;30.83;;
2019;SDS011;1014;51.960;8.542;2022-11-30T02:52:37;34.27;;;30.90;;
2019;SDS011;1014;51.960;8.542;2022-11-30T02:55:06;35.90;;;32.13;;
2019;SDS011;1014;51.960;8.542;2022-11-30T02:57:35;33.10;;;29.60;;
2019;SDS011;1014;51.960;8.542;2022-11-30T03:00:03;33.03;;;29.63;;
2019;SDS011;1014;51.960;8.542;2022-11-30T03:02:31;34.97;;;31.27;;
2019;SDS011;1014;51.960;8.542;2022-11-30T03:05:00;34.33;;;29.53;;
2019;SDS011;1014;51.960;8.542;2022-11-30T03:07:27;36.13;;;32.43;;
2019;SDS011;1014;51.960;8.542;2022-11-30T03:09:54;33.03;;;29.80;;
2019;SDS011;1014;51.960;8.542;2022-11-30T03:12:21;34.20;;;30.50;;
2019;SDS011;1014;51.960;8.542;2022-11-30T03:14:48;33.50;;;30.00;;
2019;SDS011;1014;51.960;8.542;2022-11-30T03:17:16;38.00;;;31.17;;
2019;SDS011;1014;51.960;8.542;2022-11-30T03:19:43;34.53;;;30.80;;
2019;SDS011;1014;51.960;8.542;2022-11-30T03:22:11;35.43;;;31.70;;
2019;SDS011;1014;51.960;8.542;2022-11-30T03:27:43;38.57;;;32.70;;
2019;SDS011;1014;51.960;8.542;2022-11-30T03:30:11;45.23;;;33.83;;
2019;SDS011;1014;51.960;8.542;2022-11-30T03:32:38;35.97;;;32.27;;
2019;SDS011;1014;51.960;8.542;2022-11-30T03:35:05;42.40;;;34.50;;
2019;SDS011;1014;51.960;8.542;2022-11-30T03:37:34;44.23;;;34.63;;
2019;SDS011;1014;51.960;8.542;2022-11-30T03:40:01;38.03;;;33.90;;
2019;SDS011;1014;51.960;8.542;2022-11-30T03:42:28;39.67;;;33.53;;
2019;SDS011;1014;51.960;8.542;2022-11-30T03:44:55;36.50;;;32.53;;
2019;SDS011;1014;51.960;8.542;2022-11-30T03:47:22;38.70;;;32.03;;
2019;SDS011;1014;51.960;8.542;2022-11-30T03:49:49;40.30;;;33.77;;
2019;SDS011;1014;51.960;8.542;2022-11-30T03:52:16;35.73;;;31.73;;
2019;SDS011;1014;51.960;8.542;2022-11-30T03:54:45;33.57;;;30.13;;
2019;SDS011;1014;51.960;8.542;2022-11-30T03:57:12;32.27;;;28.97;;
2019;SDS011;1014;51.960;8.542;2022-11-30T03:59:39;33.90;;;29.37;;
2019;SDS011;1014;51.960;8.542;2022-11-30T04:02:06;31.93;;;28.93;;
2019;SDS011;1014;51.960;8.542;2022-11-30T04:04:33;32.70;;;29.33;;
2019;SDS011;1014;51.960;8.542;2022-11-30T04:07:00;32.13;;;28.80;;
2019;SDS011;1014;51.960;8.542;2022-11-30T04:09:27;31.50;;;28.40;;
2019;SDS011;1014;51.960;8.542;2022-11-30T04:11:56;33.67;;;30.37;;
2019;SDS011;1014;51.960;8.542;2022-11-30T04:14:23;31.23;;;28.13;;
2019;SDS011;1014;51.960;8.542;2022-11-30T04:16:50;33.27;;;30.23;;
2019;SDS011;1014;51.960;8.542;2022-11-30T04:19:17;31.77;;;28.77;;
2019;SDS011;1014;51.960;8.542;2022-11-30T04:21:44;31.67;;;28.27;;
2019;SDS011;1014;51.960;8.542;2022-11-30T04:24:11;31.83;;;28.83;;
2019;SDS011;1014;51.960;8.542;2022-11-30T04:26:39;30.10;;;27.40;;
2019;SDS011;1014;51.960;8.542;2022-11-30T04:29:07;29.63;;;27.03;;
2019;SDS011;1014;51.960;8.542;2022-11-30T04:31:35;29.50;;;26.73;;
2019;SDS011;1014;51.960;8.542;2022-11-30T04:34:02;30.50;;;27.77;;
2019;SDS011;1014;51.960;8.542;2022-11-30T04:36:29;29.97;;;27.43;;
2019;SDS011;1014;51.960;8.542;2022-11-30T04:38:56;29.03;;;26.50;;
2019;SDS011;1014;51.960;8.542;2022-11-30T04:41:24;32.00;;;28.90;;
2019;SDS011;1014;51.960;8.542;2022-11-30T04:43:52;31.03;;;28.10;;
2019;SDS011;1014;51.960;8.542;2022-11-30T04:46:20;29.80;;;27.00;;
2019;SDS011;1014;51.960;8.542;2022-11-30T04:48:47;30.13;;;27.43;;
2019;SDS011;1014;51.960;8.542;2022-11-30T04:51:14;29.60;;;27.10;;
2019;SDS011;1014;51.960;8.542;2022-11-30T04:53:41;29.23;;;26.70;;
2019;SDS011;1014;51.960;8.542;2022-11-30T04:56:09;29.47;;;27.00;;
2019;SDS011;1014;51.960;8.542;2022-11-30T04:58:37;31.63;;;28.67;;
2019;SDS011;1014;51.960;8.542;2022-11-30T05:01:04;29.90;;;27.20;;
2019;SDS011;1014;51.960;8.542;2022-11-30T05:03:33;28.93;;;26.27;;
2019;SDS011;1014;51.960;8.542;2022-11-30T05:06:00;33.67;;;30.20;;
2019;SDS011;1014;51.960;8.542;2022-11-30T05:08:27;30.80;;;27.70;;
2019;SDS011;1014;51.960;8.542;2022-11-30T05:10:54;29.73;;;27.03;;
2019;SDS011;1014;51.960;8.542;2022-11-30T05:13:22;28.37;;;26.20;;
2019;SDS011;1014;51.960;8.542;2022-11-30T05:15:50;30.70;;;27.90;;
2019;SDS011;1014;51.960;8.542;2022-11-30T05:18:17;29.60;;;27.10;;
2019;SDS011;1014;51.960;8.542;2022-11-30T05:20:49;30.03;;;27.23;;
2019;SDS011;1014;51.960;8.542;2022-11-30T05:23:16;28.97;;;26.57;;
2019;SDS011;1014;51.960;8.542;2022-11-30T05:25:44;29.03;;;26.23;;
2019;SDS011;1014;51.960;8.542;2022-11-30T05:28:11;30.60;;;27.90;;
2019;SDS011;1014;51.960;8.542;2022-11-30T05:30:39;29.90;;;27.10;;
2019;SDS011;1014;51.960;8.542;2022-11-30T05:33:06;30.52;;;27.92;;
2019;SDS011;1014;51.960;8.542;2022-11-30T05:35:33;31.00;;;28.17;;
2019;SDS011;1014;51.960;8.542;2022-11-30T05:38:02;31.43;;;28.60;;
2019;SDS011;1014;51.960;8.542;2022-11-30T05:40:29;31.00;;;28.07;;
2019;SDS011;1014;51.960;8.542;2022-11-30T05:42:57;32.93;;;29.90;;
2019;SDS011;1014;51.960;8.542;2022-11-30T05:45:25;29.93;;;27.37;;
2019;SDS011;1014;51.960;8.542;2022-11-30T05:47:52;29.70;;;27.23;;
2019;SDS011;1014;51.960;8.542;2022-11-30T05:50:19;28.63;;;26.33;;
2019;SDS011;1014;51.960;8.542;2022-11-30T05:52:46;28.57;;;26.17;;
2019;SDS011;1014;51.960;8.542;2022-11-30T05:55:15;29.33;;;26.70;;
2019;SDS011;1014;51.960;8.542;2022-11-30T05:57:42;29.37;;;27.07;;
2019;SDS011;1014;51.960;8.542;2022-11-30T06:00:09;28.93;;;26.40;;
2019;SDS011;1014;51.960;8.542;2022-11-30T06:02:36;28.43;;;26.13;;
2019;SDS011;1014;51.960;8.542;2022-11-30T06:05:04;28.97;;;26.47;;
2019;SDS011;1014;51.960;8.542;2022-11-30T06:07:31;28.73;;;26.47;;
2019;SDS011;1014;51.960;8.542;2022-11-30T06:09:58;25.70;;;23.85;;
2019;SDS011;1014;51.960;8.542;2022-11-30T06:12:26;25.50;;;23.70;;
2019;SDS011;1014;51.960;8.542;2022-11-30T06:14:53;25.13;;;23.33;;
2019;SDS011;1014;51.960;8.542;2022-11-30T06:17:20;24.87;;;23.10;;
2019;SDS011;1014;51.960;8.542;2022-11-30T06:19:47;25.67;;;23.87;;
2019;SDS011;1014;51.960;8.542;2022-11-30T06:22:15;27.40;;;25.10;;
2019;SDS011;1014;51.960;8.542;2022-11-30T06:24:42;24.87;;;23.07;;
2019;SDS011;1014;51.960;8.542;2022-11-30T06:27:09;24.60;;;22.83;;
2019;SDS011;1014;51.960;8.542;2022-11-30T06:29:37;23.95;;;22.35;;
2019;SDS011;1014;51.960;8.542;2022-11-30T06:32:05;24.10;;;22.27;;
2019;SDS011;1014;51.960;8.542;2022-11-30T06:34:32;23.83;;;22.13;;
2019;SDS011;1014;51.960;8.542;2022-11-30T06:36:59;24.10;;;22.40;;
2019;SDS011;1014;51.960;8.542;2022-11-30T06:39:26;24.30;;;22.50;;
2019;SDS011;1014;51.960;8.542;2022-11-30T06:41:53;25.70;;;23.83;;
2019;SDS011;1014;51.960;8.542;2022-11-30T06:44:21;25.20;;;23.50;;
2019;SDS011;1014;51.960;8.542;2022-11-30T06:46:49;25.07;;;23.37;;
2019;SDS011;1014;51.960;8.542;2022-11-30T06:49:16;23.43;;;21.80;;
2019;SDS011;1014;51.960;8.542;2022-11-30T06:51:43;24.67;;;22.98;;
2019;SDS011;1014;51.960;8.542;2022-11-30T06:54:10;24.20;;;22.60;;
2019;SDS011;1014;51.960;8.542;2022-11-30T06:56:37;23.20;;;21.70;;
2019;SDS011;1014;51.960;8.542;2022-11-30T06:59:04;24.67;;;22.97;;
2019;SDS011;1014;51.960;8.542;2022-11-30T07:01:31;23.23;;;21.73;;
2019;SDS011;1014;51.960;8.542;2022-11-30T07:04:00;22.03;;;20.53;;
2019;SDS011;1014;51.960;8.542;2022-11-30T07:06:27;23.67;;;22.03;;
2019;SDS011;1014;51.960;8.542;2022-11-30T07:08:54;22.97;;;21.40;;
2019;SDS011;1014;51.960;8.542;2022-11-30T07:11:21;23.40;;;21.80;;
2019;SDS011;1014;51.960;8.542;2022-11-30T07:13:48;23.17;;;21.67;;
2019;SDS011;1014;51.960;8.542;2022-11-30T07:16:15;22.83;;;21.37;;
2019;SDS011;1014;51.960;8.542;2022-11-30T07:18:42;23.77;;;22.07;;
2019;SDS011;1014;51.960;8.542;2022-11-30T07:21:10;23.33;;;21.83;;
2019;SDS011;1014;51.960;8.542;2022-11-30T07:23:38;24.77;;;22.97;;
2019;SDS011;1014;51.960;8.542;2022-11-30T07:26:23;24.40;;;22.80;;
2019;SDS011;1014;51.960;8.542;2022-11-30T07:28:50;23.57;;;21.70;;
2019;SDS011;1014;51.960;8.542;2022-11-30T07:31:22;24.83;;;23.10;;
2019;SDS011;1014;51.960;8.542;2022-11-30T07:33:49;24.87;;;22.97;;
2019;SDS011;1014;51.960;8.542;2022-11-30T07:36:19;23.83;;;22.20;;
2019;SDS011;1014;51.960;8.542;2022-11-30T07:38:46;24.43;;;22.83;;
2019;SDS011;1014;51.960;8.542;2022-11-30T07:41:14;23.60;;;22.10;;
2019;SDS011;1014;51.960;8.542;2022-11-30T07:43:41;23.83;;;22.23;;
2019;SDS011;1014;51.960;8.542;2022-11-30T07:46:08;23.90;;;22.30;;
2019;SDS011;1014;51.960;8.542;2022-11-30T07:48:35;24.70;;;23.10;;
2019;SDS011;1014;51.960;8.542;2022-11-30T07:51:04;23.83;;;22.23;;
2019;SDS011;1014;51.960;8.542;2022-11-30T07:53:33;25.87;;;23.87;;
2019;SDS011;1014;51.960;8.542;2022-11-30T07:56:00;25.03;;;23.40;;
2019;SDS011;1014;51.960;8.542;2022-11-30T07:58:27;24.83;;;23.17;;
2019;SDS011;1014;51.960;8.542;2022-11-30T08:00:59;23.70;;;22.27;;
2019;SDS011;1014;51.960;8.542;2022-11-30T08:03:26;24.20;;;22.70;;
2019;SDS011;1014;51.960;8.542;2022-11-30T08:05:53;25.10;;;23.37;;
2019;SDS011;1014;51.960;8.542;2022-11-30T08:08:20;24.30;;;22.67;;
2019;SDS011;1014;51.960;8.542;2022-11-30T08:10:48;24.63;;;22.80;;
2019;SDS011;1014;51.960;8.542;2022-11-30T08:13:15;23.80;;;22.30;;
2019;SDS011;1014;51.960;8.542;2022-11-30T08:15:42;23.13;;;21.73;;
2019;SDS011;1014;51.960;8.542;2022-11-30T08:18:09;23.43;;;21.60;;
2019;SDS011;1014;51.960;8.542;2022-11-30T08:20:37;23.33;;;21.73;;
2019;SDS011;1014;51.960;8.542;2022-11-30T08:23:04;22.43;;;21.03;;
2019;SDS011;1014;51.960;8.542;2022-11-30T08:25:32;22.37;;;20.87;;
2019;SDS011;1014;51.960;8.542;2022-11-30T08:28:01;22.13;;;20.80;;
2019;SDS011;1014;51.960;8.542;2022-11-30T08:30:28;22.83;;;21.43;;
2019;SDS011;1014;51.960;8.542;2022-11-30T08:32:56;22.40;;;21.00;;
2019;SDS011;1014;51.960;8.542;2022-11-30T08:35:24;23.80;;;22.30;;
2019;SDS011;1014;51.960;8.542;2022-11-30T08:37:51;25.83;;;24.13;;
2019;SDS011;1014;51.960;8.542;2022-11-30T08:40:18;24.57;;;22.97;;
2019;SDS011;1014;51.960;8.542;2022-11-30T08:42:46;22.90;;;21.37;;
2019;SDS011;1014;51.960;8.542;2022-11-30T08:45:14;22.40;;;20.93;;
2019;SDS011;1014;51.960;8.542;2022-11-30T08:47:41;21.20;;;19.80;;
2019;SDS011;1014;51.960;8.542;2022-11-30T08:50:09;22.40;;;21.10;;
2019;SDS011;1014;51.960;8.542;2022-11-30T08:52:36;22.03;;;20.67;;
2019;SDS011;1014;51.960;8.542;2022-11-30T08:55:03;22.17;;;20.83;;
2019;SDS011;1014;51.960;8.542;2022-11-30T08:57:30;22.03;;;20.73;;
2019;SDS011;1014;51.960;8.542;2022-11-30T08:59:57;22.20;;;20.77;;
2019;SDS011;1014;51.960;8.542;2022-11-30T09:02:26;21.60;;;20.30;;
2019;SDS011;1014;51.960;8.542;2022-11-30T09:04:53;21.30;;;20.00;;
2019;SDS011;1014;51.960;8.542;2022-11-30T09:07:20;22.70;;;21.20;;
2019;SDS011;1014;51.960;8.542;2022-11-30T09:09:47;22.90;;;21.40;;
2019;SDS011;1014;51.960;8.542;2022-11-30T09:12:14;23.73;;;22.23;;
2019;SDS011;1014;51.960;8.542;2022-11-30T09:14:41;22.60;;;21.20;;
2019;SDS011;1014;51.960;8.542;2022-11-30T09:17:09;23.50;;;21.80;;
2019;SDS011;1014;51.960;8.542;2022-11-30T09:19:38;22.90;;;21.50;;
2019;SDS011;1014;51.960;8.542;2022-11-30T09:22:05;24.27;;;22.80;;
2019;SDS011;1014;51.960;8.542;2022-11-30T09:24:32;24.97;;;23.27;;
2019;SDS011;1014;51.960;8.542;2022-11-30T09:26:59;23.03;;;21.70;;
2019;SDS011;1014;51.960;8.542;2022-11-30T09:29:26;23.73;;;22.20;;
2019;SDS011;1014;51.960;8.542;2022-11-30T09:31:53;23.67;;;22.23;;
2019;SDS011;1014;51.960;8.542;2022-11-30T09:34:20;24.57;;;22.77;;
2019;SDS011;1014;51.960;8.542;2022-11-30T09:36:48;33.63;;;30.40;;
2019;SDS011;1014;51.960;8.542;2022-11-30T09:39:15;48.63;;;42.73;;
2019;SDS011;1014;51.960;8.542;2022-11-30T09:44:30;27.80;;;25.80;;
2019;SDS011;1014;51.960;8.542;2022-11-30T09:47:14;24.77;;;23.07;;
2019;SDS011;1014;51.960;8.542;2022-11-30T09:49:45;23.93;;;22.13;;
2019;SDS011;1014;51.960;8.542;2022-11-30T09:52:16;23.77;;;22.10;;
2019;SDS011;1014;51.960;8.542;2022-11-30T09:54:44;23.03;;;21.53;;
2019;SDS011;1014;51.960;8.542;2022-11-30T09:57:17;22.73;;;21.23;;
2019;SDS011;1014;51.960;8.542;2022-11-30T09:59:47;25.23;;;23.53;;
2019;SDS011;1014;51.960;8.542;2022-11-30T10:02:17;27.10;;;25.30;;
2019;SDS011;1014;51.960;8.542;2022-11-30T10:04:46;23.80;;;22.20;;
2019;SDS011;1014;51.960;8.542;2022-11-30T10:07:15;25.37;;;23.67;;
2019;SDS011;1014;51.960;8.542;2022-11-30T10:09:53;25.02;;;23.20;;
2019;SDS011;1014;51.960;8.542;2022-11-30T10:12:22;24.80;;;23.20;;
2019;SDS011;1014;51.960;8.542;2022-11-30T10:14:55;27.20;;;25.30;;
2019;SDS011;1014;51.960;8.542;2022-11-30T10:17:27;27.43;;;25.47;;
2019;SDS011;1014;51.960;8.542;2022-11-30T10:20:07;24.50;;;23.00;;
2019;SDS011;1014;51.960;8.542;2022-11-30T10:22:41;24.77;;;23.17;;
2019;SDS011;1014;51.960;8.542;2022-11-30T10:25:27;25.27;;;23.43;;
2019;SDS011;1014;51.960;8.542;2022-11-30T10:27:57;25.50;;;23.73;;
2019;SDS011;1014;51.960;8.542;2022-11-30T10:30:29;24.90;;;23.30;;
2019;SDS011;1014;51.960;8.542;2022-11-30T10:32:57;25.50;;;23.80;;
2019;SDS011;1014;51.960;8.542;2022-11-30T10:35:30;26.63;;;24.67;;
2019;SDS011;1014;51.960;8.542;2022-11-30T10:38:01;26.90;;;24.80;;
2019;SDS011;1014;51.960;8.542;2022-11-30T10:40:32;25.73;;;23.93;;
2019;SDS011;1014;51.960;8.542;2022-11-30T10:43:04;26.03;;;24.03;;
2019;SDS011;1014;51.960;8.542;2022-11-30T10:45:32;26.60;;;24.40;;
2019;SDS011;1014;51.960;8.542;2022-11-30T10:48:02;26.10;;;24.20;;
2019;SDS011;1014;51.960;8.542;2022-11-30T10:50:32;28.93;;;26.63;;
2019;SDS011;1014;51.960;8.542;2022-11-30T10:52:59;29.00;;;26.63;;
2019;SDS011;1014;51.960;8.542;2022-11-30T10:55:27;28.40;;;26.30;;
2019;SDS011;1014;51.960;8.542;2022-11-30T10:57:57;26.30;;;24.37;;
2019;SDS011;1014;51.960;8.542;2022-11-30T11:00:25;27.00;;;24.93;;
2019;SDS011;1014;51.960;8.542;2022-11-30T11:02:52;25.67;;;23.87;;
2019;SDS011;1014;51.960;8.542;2022-11-30T11:05:21;27.33;;;25.30;;
2019;SDS011;1014;51.960;8.542;2022-11-30T11:07:57;28.03;;;26.03;;
2019;SDS011;1014;51.960;8.542;2022-11-30T11:10:27;26.07;;;24.17;;
2019;SDS011;1014;51.960;8.542;2022-11-30T11:12:57;31.30;;;28.70;;
2019;SDS011;1014;51.960;8.542;2022-11-30T11:15:28;28.10;;;25.90;;
2019;SDS011;1014;51.960;8.542;2022-11-30T11:18:11;29.30;;;26.90;;
2019;SDS011;1014;51.960;8.542;2022-11-30T11:20:45;28.23;;;26.03;;
2019;SDS011;1014;51.960;8.542;2022-11-30T11:23:18;29.47;;;27.30;;
2019;SDS011;1014;51.960;8.542;2022-11-30T11:25:48;30.37;;;28.10;;
2019;SDS011;1014;51.960;8.542;2022-11-30T11:28:19;29.13;;;26.80;;
2019;SDS011;1014;51.960;8.542;2022-11-30T11:30:48;29.67;;;27.17;;
2019;SDS011;1014;51.960;8.542;2022-11-30T11:33:25;29.40;;;27.10;;
2019;SDS011;1014;51.960;8.542;2022-11-30T11:35:53;30.97;;;28.17;;
2019;SDS011;1014;51.960;8.542;2022-11-30T11:38:22;28.30;;;26.20;;
2019;SDS011;1014;51.960;8.542;2022-11-30T11:40:54;33.17;;;30.10;;
2019;SDS011;1014;51.960;8.542;2022-11-30T11:43:24;31.57;;;28.90;;
2019;SDS011;1014;51.960;8.542;2022-11-30T11:45:52;30.40;;;27.80;;
2019;SDS011;1014;51.960;8.542;2022-11-30T11:48:25;32.97;;;30.10;;
2019;SDS011;1014;51.960;8.542;2022-11-30T11:50:55;36.17;;;32.80;;
2019;SDS011;1014;51.960;8.542;2022-11-30T11:53:23;31.17;;;28.63;;
2019;SDS011;1014;51.960;8.542;2022-11-30T11:56:03;31.60;;;28.90;;
2019;SDS011;1014;51.960;8.542;2022-11-30T11:58:39;32.20;;;29.40;;
2019;SDS011;1014;51.960;8.542;2022-11-30T12:01:15;33.42;;;30.40;;
2019;SDS011;1014;51.960;8.542;2022-11-30T12:03:50;33.40;;;30.53;;
2019;SDS011;1014;51.960;8.542;2022-11-30T12:06:20;31.07;;;28.47;;
2019;SDS011;1014;51.960;8.542;2022-11-30T12:08:49;32.60;;;30.10;;
2019;SDS011;1014;51.960;8.542;2022-11-30T12:11:19;32.77;;;29.90;;
2019;SDS011;1014;51.960;8.542;2022-11-30T12:13:48;33.90;;;31.00;;
2019;SDS011;1014;51.960;8.542;2022-11-30T12:16:20;33.33;;;30.00;;
2019;SDS011;1014;51.960;8.542;2022-11-30T12:18:51;33.17;;;30.20;;
2019;SDS011;1014;51.960;8.542;2022-11-30T12:21:22;32.33;;;29.73;;
2019;SDS011;1014;51.960;8.542;2022-11-30T12:24:02;34.13;;;31.03;;
2019;SDS011;1014;51.960;8.542;2022-11-30T12:26:33;32.70;;;29.70;;
2019;SDS011;1014;51.960;8.542;2022-11-30T12:29:12;34.50;;;31.50;;
2019;SDS011;1014;51.960;8.542;2022-11-30T12:31:43;34.20;;;30.97;;
2019;SDS011;1014;51.960;8.542;2022-11-30T12:34:15;36.47;;;32.80;;
2019;SDS011;1014;51.960;8.542;2022-11-30T12:36:47;33.90;;;30.80;;
2019;SDS011;1014;51.960;8.542;2022-11-30T12:39:17;37.70;;;34.03;;
2019;SDS011;1014;51.960;8.542;2022-11-30T12:41:48;38.20;;;34.40;;
2019;SDS011;1014;51.960;8.542;2022-11-30T12:44:26;37.50;;;33.50;;
2019;SDS011;1014;51.960;8.542;2022-11-30T12:46:57;38.40;;;34.40;;
2019;SDS011;1014;51.960;8.542;2022-11-30T12:49:32;35.90;;;32.43;;
2019;SDS011;1014;51.960;8.542;2022-11-30T12:52:05;38.40;;;34.33;;
2019;SDS011;1014;51.960;8.542;2022-11-30T12:54:40;38.30;;;34.33;;
2019;SDS011;1014;51.960;8.542;2022-11-30T12:57:11;38.77;;;35.07;;
2019;SDS011;1014;51.960;8.542;2022-11-30T12:59:43;37.33;;;33.80;;
2019;SDS011;1014;51.960;8.542;2022-11-30T13:02:18;36.03;;;32.33;;
2019;SDS011;1014;51.960;8.542;2022-11-30T13:04:50;37.33;;;33.67;;
2019;SDS011;1014;51.960;8.542;2022-11-30T13:07:21;37.37;;;33.80;;
2019;SDS011;1014;51.960;8.542;2022-11-30T13:09:50;35.33;;;31.80;;
2019;SDS011;1014;51.960;8.542;2022-11-30T13:12:20;38.43;;;34.83;;
2019;SDS011;1014;51.960;8.542;2022-11-30T13:14:51;39.13;;;35.23;;
2019;SDS011;1014;51.960;8.542;2022-11-30T13:17:22;38.40;;;34.67;;
2019;SDS011;1014;51.960;8.542;2022-11-30T13:19:52;40.93;;;35.27;;
2019;SDS011;1014;51.960;8.542;2022-11-30T13:22:22;35.03;;;31.90;;
2019;SDS011;1014;51.960;8.542;2022-11-30T13:24:52;37.00;;;33.30;;
2019;SDS011;1014;51.960;8.542;2022-11-30T13:27:23;37.97;;;33.90;;
2019;SDS011;1014;51.960;8.542;2022-11-30T13:30:02;38.00;;;33.60;;
2019;SDS011;1014;51.960;8.542;2022-11-30T13:32:32;39.23;;;35.27;;
2019;SDS011;1014;51.960;8.542;2022-11-30T13:37:42;37.07;;;33.37;;
2019;SDS011;1014;51.960;8.542;2022-11-30T13:40:11;35.63;;;32.23;;
2019;SDS011;1014;51.960;8.542;2022-11-30T13:42:46;37.23;;;33.43;;
2019;SDS011;1014;51.960;8.542;2022-11-30T13:45:28;36.77;;;32.87;;
2019;SDS011;1014;51.960;8.542;2022-11-30T13:47:57;38.77;;;34.93;;
2019;SDS011;1014;51.960;8.542;2022-11-30T13:50:26;37.40;;;33.70;;
2019;SDS011;1014;51.960;8.542;2022-11-30T13:53:15;40.70;;;35.13;;
2019;SDS011;1014;51.960;8.542;2022-11-30T13:58:26;37.57;;;33.47;;
2019;SDS011;1014;51.960;8.542;2022-11-30T14:06:44;41.13;;;36.00;;
2019;SDS011;1014;51.960;8.542;2022-11-30T14:09:13;36.50;;;32.73;;
2019;SDS011;1014;51.960;8.542;2022-11-30T14:11:41;36.67;;;33.17;;
2019;SDS011;1014;51.960;8.542;2022-11-30T14:16:55;40.00;;;35.80;;
2019;SDS011;1014;51.960;8.542;2022-11-30T14:19:23;42.13;;;33.90;;
2019;SDS011;1014;51.960;8.542;2022-11-30T14:21:53;38.50;;;34.47;;
2019;SDS011;1014;51.960;8.542;2022-11-30T14:24:21;38.63;;;34.50;;
2019;SDS011;1014;51.960;8.542;2022-11-30T14:26:49;38.67;;;34.37;;
2019;SDS011;1014;51.960;8.542;2022-11-30T14:29:18;36.67;;;32.87;;
2019;SDS011;1014;51.960;8.542;2022-11-30T14:31:48;43.00;;;35.33;;
2019;SDS011;1014;51.960;8.542;2022-11-30T14:34:17;38.95;;;35.00;;
2019;SDS011;1014;51.960;8.542;2022-11-30T14:36:47;38.03;;;33.90;;
2019;SDS011;1014;51.960;8.542;2022-11-30T14:39:25;38.97;;;34.97;;
2019;SDS011;1014;51.960;8.542;2022-11-30T14:41:53;38.50;;;34.40;;
2019;SDS011;1014;51.960;8.542;2022-11-30T14:44:20;41.90;;;37.50;;
2019;SDS011;1014;51.960;8.542;2022-11-30T14:46:47;45.73;;;37.20;;
2019;SDS011;1014;51.960;8.542;2022-11-30T14:49:14;40.93;;;36.83;;
2019;SDS011;1014;51.960;8.542;2022-11-30T14:51:43;45.27;;;37.50;;
2019;SDS011;1014;51.960;8.542;2022-11-30T14:54:14;40.63;;;36.43;;
2019;SDS011;1014;51.960;8.542;2022-11-30T14:56:46;50.40;;;39.33;;
2019;SDS011;1014;51.960;8.542;2022-11-30T15:01:59;45.97;;;41.03;;
2019;SDS011;1014;51.960;8.542;2022-11-30T15:04:27;45.33;;;35.47;;
2019;SDS011;1014;51.960;8.542;2022-11-30T15:06:55;37.97;;;33.87;;
2019;SDS011;1014;51.960;8.542;2022-11-30T15:09:23;42.23;;;34.73;;
2019;SDS011;1014;51.960;8.542;2022-11-30T15:11:53;41.03;;;35.70;;
2019;SDS011;1014;51.960;8.542;2022-11-30T15:14:20;48.73;;;36.90;;
2019;SDS011;1014;51.960;8.542;2022-11-30T15:16:48;41.15;;;36.20;;
2019;SDS011;1014;51.960;8.542;2022-11-30T15:19:19;38.10;;;34.30;;
2019;SDS011;1014;51.960;8.542;2022-11-30T15:21:47;41.70;;;34.63;;